createdAt,value
2023-05-05T00:00:24.761Z,0
2023-05-05T00:02:05.187Z,0
2023-05-05T00:03:45.634Z,0
2023-05-05T00:05:25.977Z,0
2023-05-05T00:07:06.322Z,0
2023-05-05T00:08:46.763Z,0
2023-05-05T00:10:27.180Z,0
2023-05-05T00:12:07.657Z,0
2023-05-05T00:13:48.054Z,0
2023-05-05T00:15:28.387Z,0
2023-05-05T00:17:08.841Z,0
2023-05-05T00:18:49.201Z,0
2023-05-05T00:20:29.598Z,0
2023-05-05T00:22:10.021Z,0
2023-05-05T00:23:50.432Z,0
2023-05-05T00:25:30.786Z,0
2023-05-05T00:27:11.160Z,0
2023-05-05T00:28:51.563Z,0
2023-05-05T00:30:31.853Z,0
2023-05-05T00:32:12.222Z,0
2023-05-05T00:33:52.567Z,0
2023-05-05T00:35:32.895Z,0
2023-05-05T00:37:13.209Z,0
2023-05-05T00:38:53.510Z,0
2023-05-05T00:40:33.835Z,0
2023-05-05T00:42:14.178Z,0
2023-05-05T00:43:54.514Z,0
2023-05-05T00:45:34.858Z,0
2023-05-05T00:47:15.148Z,0
2023-05-05T00:48:55.516Z,0
2023-05-05T00:50:35.860Z,0
2023-05-05T00:52:16.253Z,0
2023-05-05T00:53:56.720Z,0
2023-05-05T00:55:37.087Z,0
2023-05-05T00:57:17.533Z,0
2023-05-05T00:58:57.945Z,0
2023-05-05T01:00:38.307Z,0
2023-05-05T01:02:18.792Z,0
2023-05-05T01:03:59.291Z,0
2023-05-05T01:05:39.552Z,0
2023-05-05T01:07:19.908Z,0
2023-05-05T01:09:00.389Z,0
2023-05-05T01:10:40.750Z,0
2023-05-05T01:12:21.226Z,0
2023-05-05T01:14:01.651Z,0
2023-05-05T01:15:42.125Z,0
2023-05-05T01:17:22.589Z,0
2023-05-05T01:19:03.020Z,0
2023-05-05T01:20:43.367Z,0
2023-05-05T01:22:23.850Z,0
2023-05-05T01:24:04.132Z,0
2023-05-05T01:25:44.628Z,0
2023-05-05T01:27:25.045Z,0
2023-05-05T01:29:05.493Z,0
2023-05-05T01:30:45.908Z,0
2023-05-05T01:32:26.392Z,0
2023-05-05T01:34:06.636Z,0
2023-05-05T01:35:46.989Z,0
2023-05-05T01:37:27.392Z,0
2023-05-05T01:39:07.776Z,0
2023-05-05T01:40:48.175Z,0
2023-05-05T01:42:28.552Z,0
2023-05-05T01:44:09.021Z,0
2023-05-05T01:45:49.580Z,0
2023-05-05T01:47:29.938Z,0
2023-05-05T01:49:10.327Z,0
2023-05-05T01:50:50.740Z,0
2023-05-05T01:52:31.085Z,0
2023-05-05T01:54:11.539Z,0
2023-05-05T01:55:51.995Z,0
2023-05-05T01:57:32.371Z,0
2023-05-05T01:59:12.805Z,0
2023-05-05T02:00:53.212Z,0
2023-05-05T02:02:33.709Z,0
2023-05-05T02:04:14.103Z,0
2023-05-05T02:05:54.435Z,0
2023-05-05T02:07:34.836Z,0
2023-05-05T02:09:15.304Z,0
2023-05-05T02:10:55.719Z,0
2023-05-05T02:12:36.085Z,0
2023-05-05T02:14:16.477Z,0
2023-05-05T02:15:56.878Z,0
2023-05-05T02:17:37.159Z,0
2023-05-05T02:19:17.504Z,0
2023-05-05T02:20:57.986Z,0
2023-05-05T02:22:38.346Z,0
2023-05-05T02:24:18.722Z,0
2023-05-05T02:25:59.006Z,0
2023-05-05T02:27:39.351Z,0
2023-05-05T02:29:19.749Z,0
2023-05-05T02:31:00.128Z,0
2023-05-05T02:32:40.458Z,0
2023-05-05T02:34:20.919Z,0
2023-05-05T02:36:01.351Z,0
2023-05-05T02:37:41.815Z,0
2023-05-05T02:39:22.236Z,0
2023-05-05T02:41:02.664Z,0
2023-05-05T02:42:43.100Z,0
2023-05-05T02:44:23.486Z,0
2023-05-05T02:46:03.979Z,0
2023-05-05T02:47:44.360Z,0
2023-05-05T02:49:24.718Z,0
2023-05-05T02:51:05.160Z,0
2023-05-05T02:52:45.524Z,0
2023-05-05T02:54:25.962Z,0
2023-05-05T02:56:06.405Z,0
2023-05-05T02:57:46.819Z,0
2023-05-05T02:59:27.224Z,0
2023-05-05T03:01:07.748Z,0
2023-05-05T03:02:48.069Z,0
2023-05-05T03:04:28.415Z,0
2023-05-05T03:06:08.848Z,0
2023-05-05T03:07:49.317Z,0
2023-05-05T03:09:29.767Z,0
2023-05-05T03:11:10.196Z,0
2023-05-05T03:12:50.569Z,0
2023-05-05T03:14:32.827Z,0
2023-05-05T03:16:11.248Z,0
2023-05-05T03:17:51.658Z,0
2023-05-05T03:19:32.141Z,0
2023-05-05T03:21:12.458Z,0
2023-05-05T03:22:52.970Z,0
2023-05-05T03:24:33.391Z,0
2023-05-05T03:26:13.840Z,0
2023-05-05T03:27:54.222Z,0
2023-05-05T03:29:34.703Z,0
2023-05-05T03:31:14.972Z,0
2023-05-05T03:32:55.512Z,0
2023-05-05T03:34:35.788Z,0
2023-05-05T03:36:16.258Z,0
2023-05-05T03:37:56.729Z,0
2023-05-05T03:39:37.071Z,0
2023-05-05T03:41:17.417Z,0
2023-05-05T03:42:57.901Z,0
2023-05-05T03:44:38.350Z,0
2023-05-05T03:46:18.898Z,0
2023-05-05T03:47:59.260Z,0
2023-05-05T03:49:39.583Z,0
2023-05-05T03:51:20.060Z,0
2023-05-05T03:53:00.496Z,0
2023-05-05T03:54:40.975Z,0
2023-05-05T03:56:21.360Z,0
2023-05-05T03:58:01.839Z,0
2023-05-05T03:59:42.281Z,0
2023-05-05T04:01:22.742Z,0
2023-05-05T04:03:03.151Z,0
2023-05-05T04:04:43.438Z,0
2023-05-05T04:06:23.755Z,0
2023-05-05T04:08:04.261Z,0
2023-05-05T04:09:44.664Z,0
2023-05-05T04:11:25.155Z,0
2023-05-05T04:13:05.635Z,0.051
2023-05-05T04:14:46.077Z,0.057
2023-05-05T04:16:26.563Z,0.062
2023-05-05T04:18:06.829Z,0.068
2023-05-05T04:19:47.230Z,0.075
2023-05-05T04:21:27.686Z,0.083
2023-05-05T04:23:08.115Z,0.092
2023-05-05T04:24:48.529Z,0.103
2023-05-05T04:26:28.951Z,0.114
2023-05-05T04:28:09.324Z,0.122
2023-05-05T04:29:49.763Z,0.141
2023-05-05T04:31:30.154Z,0.156
2023-05-05T04:33:10.555Z,0.187
2023-05-05T04:34:50.952Z,0.212
2023-05-05T04:36:31.413Z,0.244
2023-05-05T04:38:11.838Z,0.282
2023-05-05T04:39:52.186Z,0.322
2023-05-05T04:41:32.623Z,0.352
2023-05-05T04:43:12.980Z,0.378
2023-05-05T04:44:53.380Z,0.398
2023-05-05T04:46:33.888Z,0.377
2023-05-05T04:48:14.284Z,0.364
2023-05-05T04:49:54.712Z,0.353
2023-05-05T04:51:35.080Z,0.369
2023-05-05T04:53:15.434Z,0.379
2023-05-05T04:54:55.809Z,0.381
2023-05-05T04:56:36.193Z,0.384
2023-05-05T04:58:16.495Z,0.386
2023-05-05T04:59:56.907Z,0.379
2023-05-05T05:01:38.550Z,0.361
2023-05-05T05:03:17.690Z,0.347
2023-05-05T05:04:58.005Z,0.325
2023-05-05T05:06:38.453Z,0.298
2023-05-05T05:08:18.854Z,0.29
2023-05-05T05:09:59.290Z,0.278
2023-05-05T05:11:39.650Z,0.285
2023-05-05T05:13:20.097Z,0.299
2023-05-05T05:15:00.501Z,0.314
2023-05-05T05:16:40.969Z,0.332
2023-05-05T05:18:21.363Z,0.403
2023-05-05T05:20:01.725Z,0.421
2023-05-05T05:21:42.179Z,0.432
2023-05-05T05:23:22.645Z,0.428
2023-05-05T05:25:03.149Z,0.452
2023-05-05T05:26:43.540Z,0.502
2023-05-05T05:28:23.953Z,0.503
2023-05-05T05:30:04.319Z,0.495
2023-05-05T05:31:44.751Z,0.497
2023-05-05T05:33:25.228Z,0.51
2023-05-05T05:35:05.586Z,0.518
2023-05-05T05:36:46.047Z,0.526
2023-05-05T05:38:26.516Z,0.533
2023-05-05T05:40:07.139Z,0.544
2023-05-05T05:41:47.355Z,0.553
2023-05-05T05:43:27.706Z,0.591
2023-05-05T05:45:08.187Z,0.629
2023-05-05T05:46:48.584Z,0.674
2023-05-05T05:48:28.924Z,0.741
2023-05-05T05:50:09.673Z,0.777
2023-05-05T05:51:49.763Z,0.845
2023-05-05T05:53:30.102Z,0.925
2023-05-05T05:55:10.552Z,0.958
2023-05-05T05:56:50.979Z,0.988
2023-05-05T05:58:31.389Z,1.101
2023-05-05T06:00:11.789Z,1.127
2023-05-05T06:01:52.210Z,1.233
2023-05-05T06:03:32.708Z,1.089
2023-05-05T06:05:13.125Z,1.287
2023-05-05T06:06:53.525Z,1.03
2023-05-05T06:08:34.052Z,1.204
2023-05-05T06:10:26.491Z,1.37
2023-05-05T06:11:54.794Z,1.349
2023-05-05T06:13:35.181Z,1.066
2023-05-05T06:15:15.645Z,1.137
2023-05-05T06:16:56.075Z,1.28
2023-05-05T06:18:36.507Z,1.187
2023-05-05T06:20:16.942Z,1.286
2023-05-05T06:21:57.272Z,1.384
2023-05-05T06:23:37.692Z,1.444
2023-05-05T06:25:18.140Z,1.456
2023-05-05T06:26:58.517Z,1.529
2023-05-05T06:28:38.970Z,1.702
2023-05-05T06:30:19.380Z,1.757
2023-05-05T06:31:59.805Z,1.832
2023-05-05T06:33:40.200Z,1.932
2023-05-05T06:35:20.687Z,2.038
2023-05-05T06:37:01.156Z,2.104
2023-05-05T06:38:41.639Z,2.15
2023-05-05T06:40:21.986Z,2.183
2023-05-05T06:42:02.394Z,2.275
2023-05-05T06:43:42.756Z,2.383
2023-05-05T06:45:23.036Z,2.495
2023-05-05T06:47:03.415Z,2.608
2023-05-05T06:48:43.689Z,2.703
2023-05-05T06:50:24.010Z,2.791
2023-05-05T06:52:04.541Z,2.624
2023-05-05T06:53:44.973Z,2.913
2023-05-05T06:55:25.431Z,3.139
2023-05-05T06:57:05.934Z,3.242
2023-05-05T06:58:46.317Z,3.41
2023-05-05T07:00:26.789Z,3.422
2023-05-05T07:02:07.077Z,2.241
2023-05-05T07:03:47.522Z,3.475
2023-05-05T07:05:27.900Z,3.27
2023-05-05T07:07:08.317Z,2.517
2023-05-05T07:08:48.772Z,3.18
2023-05-05T07:10:29.201Z,3.293
2023-05-05T07:12:09.661Z,3.244
2023-05-05T07:13:50.176Z,2.296
2023-05-05T07:15:30.504Z,2.755
2023-05-05T07:17:10.867Z,3.346
2023-05-05T07:18:51.299Z,3.541
2023-05-05T07:20:31.700Z,3.55
2023-05-05T07:22:12.141Z,3.764
2023-05-05T07:23:52.503Z,4.01
2023-05-05T07:25:32.893Z,4.061
2023-05-05T07:27:13.285Z,3.002
2023-05-05T07:28:53.766Z,2.045
2023-05-05T07:30:34.153Z,4.12
2023-05-05T07:32:14.646Z,2.45
2023-05-05T07:33:55.073Z,1.901
2023-05-05T07:35:35.487Z,4.078
2023-05-05T07:37:15.949Z,4.663
2023-05-05T07:38:56.419Z,2.582
2023-05-05T07:40:36.790Z,4.334
2023-05-05T07:42:17.238Z,2.139
2023-05-05T07:43:57.644Z,3.781
2023-05-05T07:45:38.090Z,1.613
2023-05-05T07:47:18.607Z,1.666
2023-05-05T07:48:58.983Z,1.886
2023-05-05T07:50:39.340Z,2.08
2023-05-05T07:52:25.228Z,3.946
2023-05-05T07:54:00.220Z,4.006
2023-05-05T07:55:40.571Z,3.103
2023-05-05T07:57:20.964Z,1.856
2023-05-05T07:59:01.365Z,1.652
2023-05-05T08:00:41.833Z,1.386
2023-05-05T08:02:22.377Z,1.259
2023-05-05T08:04:02.772Z,1.287
2023-05-05T08:05:43.105Z,1.437
2023-05-05T08:07:23.491Z,1.7
2023-05-05T08:09:03.911Z,1.727
2023-05-05T08:10:44.345Z,1.302
2023-05-05T08:12:24.713Z,1.01
2023-05-05T08:14:05.155Z,0.937
2023-05-05T08:15:45.716Z,0.872
2023-05-05T08:17:26.161Z,0.793
2023-05-05T08:19:17.708Z,0.767
2023-05-05T08:20:46.992Z,0.839
2023-05-05T08:22:27.361Z,0.961
2023-05-05T08:24:07.762Z,1.065
2023-05-05T08:25:48.136Z,1.175
2023-05-05T08:27:28.554Z,1.21
2023-05-05T08:29:08.988Z,1.145
2023-05-05T08:30:49.448Z,0.88
2023-05-05T08:32:30.039Z,0.729
2023-05-05T08:34:10.287Z,0.959
2023-05-05T08:35:50.780Z,1.344
2023-05-05T08:37:31.140Z,1.486
2023-05-05T08:39:11.592Z,1.419
2023-05-05T08:40:52.105Z,1.227
2023-05-05T08:42:37.037Z,1.181
2023-05-05T08:44:13.009Z,1.168
2023-05-05T08:45:53.364Z,1.124
2023-05-05T08:47:33.949Z,1.117
2023-05-05T08:49:14.141Z,1.245
2023-05-05T08:50:54.490Z,1.388
2023-05-05T08:52:34.927Z,1.427
2023-05-05T08:54:15.332Z,1.261
2023-05-05T08:55:55.739Z,1.055
2023-05-05T08:57:36.256Z,0.954
2023-05-05T08:59:16.631Z,0.833
2023-05-05T09:00:57.186Z,0.815
2023-05-05T09:02:37.532Z,0.959
2023-05-05T09:04:17.952Z,1.221
2023-05-05T09:05:58.325Z,1.659
2023-05-05T09:07:38.813Z,2.4
2023-05-05T09:09:19.255Z,2.618
2023-05-05T09:10:59.660Z,2.475
2023-05-05T09:12:40.085Z,2.125
2023-05-05T09:14:20.528Z,1.748
2023-05-05T09:16:00.856Z,1.53
2023-05-05T09:17:41.286Z,1.582
2023-05-05T09:19:21.642Z,1.74
2023-05-05T09:21:02.121Z,1.739
2023-05-05T09:22:42.456Z,1.797
2023-05-05T09:24:22.858Z,2.065
2023-05-05T09:26:03.302Z,2.347
2023-05-05T09:27:43.717Z,2.566
2023-05-05T09:29:24.152Z,2.904
2023-05-05T09:31:04.570Z,3.798
2023-05-05T09:32:45.026Z,3.379
2023-05-05T09:34:25.413Z,3.394
2023-05-05T09:36:05.869Z,3.018
2023-05-05T09:37:46.279Z,2.843
2023-05-05T09:39:26.688Z,2.938
2023-05-05T09:41:07.035Z,3.641
2023-05-05T09:42:47.410Z,2.895
2023-05-05T09:44:27.803Z,2.15
2023-05-05T09:46:08.323Z,1.686
2023-05-05T09:47:48.608Z,1.659
2023-05-05T09:49:28.931Z,1.808
2023-05-05T09:51:09.325Z,2.067
2023-05-05T09:52:49.836Z,2.804
2023-05-05T09:54:30.236Z,5.487
2023-05-05T09:56:10.674Z,3.676
2023-05-05T09:57:51.066Z,4.227
2023-05-05T09:59:31.491Z,6.48
2023-05-05T10:01:11.996Z,6.924
2023-05-05T10:02:52.424Z,5.348
2023-05-05T10:04:32.842Z,4.657
2023-05-05T10:06:13.151Z,5.035
2023-05-05T10:07:53.598Z,3.256
2023-05-05T10:09:34.083Z,3.653
2023-05-05T10:11:14.508Z,3.781
2023-05-05T10:12:54.929Z,3.983
2023-05-05T10:14:35.290Z,4.821
2023-05-05T10:16:15.747Z,7.747
2023-05-05T10:18:06.942Z,7.204
2023-05-05T10:19:36.563Z,6.264
2023-05-05T10:21:16.979Z,5.85
2023-05-05T10:22:57.352Z,6.102
2023-05-05T10:24:37.786Z,6.951
2023-05-05T10:26:18.183Z,6.764
2023-05-05T10:27:58.529Z,6.31
2023-05-05T10:29:39.003Z,7.277
2023-05-05T10:31:25.625Z,7.148
2023-05-05T10:33:13.554Z,7.212
2023-05-05T10:34:40.227Z,6.28
2023-05-05T10:36:20.518Z,6.499
2023-05-05T10:38:00.882Z,5.979
2023-05-05T10:39:41.256Z,7.136
2023-05-05T10:41:21.667Z,7.487
2023-05-05T10:43:02.158Z,7.373
2023-05-05T10:44:42.519Z,7.498
2023-05-05T10:46:22.953Z,7.241
2023-05-05T10:48:03.463Z,6.476
2023-05-05T10:49:43.713Z,7.344
2023-05-05T10:51:38.493Z,7.396
2023-05-05T10:53:04.768Z,6.63
2023-05-05T10:54:45.194Z,6.471
2023-05-05T10:56:25.653Z,6.669
2023-05-05T10:58:06.023Z,5.781
2023-05-05T10:59:46.425Z,5.919
2023-05-05T11:01:26.734Z,5.766
2023-05-05T11:03:07.308Z,5.812
2023-05-05T11:04:47.672Z,5.806
2023-05-05T11:06:28.127Z,6.695
2023-05-05T11:08:08.543Z,7.391
2023-05-05T11:09:48.964Z,6.446
2023-05-05T11:11:29.394Z,6.457
2023-05-05T11:13:09.799Z,5.666
2023-05-05T11:14:50.197Z,6.117
2023-05-05T11:16:30.650Z,6.7
2023-05-05T11:18:11.115Z,5.458
2023-05-05T11:19:51.480Z,5.46
2023-05-05T11:21:31.912Z,4.732
2023-05-05T11:23:14.524Z,4.557
2023-05-05T11:24:52.790Z,4.346
2023-05-05T11:26:33.152Z,5.726
2023-05-05T11:28:13.576Z,3.359
2023-05-05T11:29:53.987Z,3.013
2023-05-05T11:31:34.487Z,3.574
2023-05-05T11:33:15.015Z,3.06
2023-05-05T11:34:55.343Z,2.372
2023-05-05T11:36:35.857Z,2.371
2023-05-05T11:38:16.275Z,2.965
2023-05-05T11:39:56.741Z,2.086
2023-05-05T11:41:37.119Z,1.936
2023-05-05T11:43:17.533Z,1.853
2023-05-05T11:44:57.845Z,1.897
2023-05-05T11:46:38.389Z,1.955
2023-05-05T11:48:18.656Z,1.956
2023-05-05T11:49:59.038Z,1.937
2023-05-05T11:51:39.480Z,1.895
2023-05-05T11:53:19.826Z,1.806
2023-05-05T11:55:00.267Z,1.741
2023-05-05T11:56:40.642Z,1.694
2023-05-05T11:58:21.029Z,1.739
2023-05-05T12:00:01.469Z,1.824
2023-05-05T12:01:41.828Z,1.866
2023-05-05T12:03:22.389Z,1.768
2023-05-05T12:05:02.649Z,1.618
2023-05-05T12:06:42.974Z,1.532
2023-05-05T12:08:23.392Z,1.59
2023-05-05T12:10:03.794Z,1.69
2023-05-05T12:11:44.171Z,1.82
2023-05-05T12:13:24.620Z,1.913
2023-05-05T12:15:04.984Z,2.001
2023-05-05T12:16:45.348Z,2.078
2023-05-05T12:18:25.740Z,2.113
2023-05-05T12:20:06.291Z,2.103
2023-05-05T12:21:46.404Z,2.037
2023-05-05T12:23:26.709Z,2.122
2023-05-05T12:25:07.077Z,2.501
2023-05-05T12:26:47.605Z,2.908
2023-05-05T12:28:28.071Z,3.862
2023-05-05T12:30:08.668Z,5.475
2023-05-05T12:31:48.916Z,3.779
2023-05-05T12:33:29.282Z,2.122
2023-05-05T12:35:09.706Z,1.716
2023-05-05T12:36:50.094Z,1.536
2023-05-05T12:38:30.506Z,1.374
2023-05-05T12:40:11.051Z,1.156
2023-05-05T12:41:51.330Z,0.958
2023-05-05T12:43:31.762Z,0.814
2023-05-05T12:45:12.132Z,0.744
2023-05-05T12:46:52.534Z,0.737
2023-05-05T12:48:32.894Z,0.756
2023-05-05T12:50:13.318Z,0.772
2023-05-05T12:51:53.728Z,0.799
2023-05-05T12:53:34.175Z,0.871
2023-05-05T12:55:14.546Z,0.941
2023-05-05T12:56:54.965Z,0.992
2023-05-05T12:58:35.334Z,1.037
2023-05-05T13:00:15.798Z,1.079
2023-05-05T13:01:56.262Z,1.115
2023-05-05T13:03:36.699Z,1.218
2023-05-05T13:05:17.050Z,1.378
2023-05-05T13:06:57.399Z,1.561
2023-05-05T13:08:37.790Z,1.779
2023-05-05T13:10:18.292Z,1.98
2023-05-05T13:11:58.689Z,2.412
2023-05-05T13:13:39.135Z,2.313
2023-05-05T13:15:19.430Z,2.38
2023-05-05T13:16:59.781Z,2.15
2023-05-05T13:18:40.198Z,1.968
2023-05-05T13:20:20.555Z,1.965
2023-05-05T13:22:01.033Z,2.213
2023-05-05T13:23:41.448Z,2.084
2023-05-05T13:25:21.915Z,1.922
2023-05-05T13:27:02.320Z,1.617
2023-05-05T13:28:42.713Z,1.326
2023-05-05T13:30:23.124Z,1.074
2023-05-05T13:32:03.512Z,0.877
2023-05-05T13:33:43.898Z,0.793
2023-05-05T13:35:24.390Z,0.783
2023-05-05T13:37:04.782Z,0.827
2023-05-05T13:38:45.096Z,0.956
2023-05-05T13:40:26.040Z,1.13
2023-05-05T13:42:06.031Z,1.24
2023-05-05T13:43:46.463Z,1.263
2023-05-05T13:45:26.810Z,1.227
2023-05-05T13:47:07.352Z,1.085
2023-05-05T13:48:47.637Z,0.955
2023-05-05T13:50:28.072Z,0.86
2023-05-05T13:52:08.550Z,0.797
2023-05-05T13:53:48.944Z,0.791
2023-05-05T13:55:29.307Z,0.819
2023-05-05T13:57:09.771Z,0.815
2023-05-05T13:58:50.186Z,0.806
2023-05-05T14:00:30.579Z,0.809
2023-05-05T14:02:11.003Z,0.805
2023-05-05T14:03:51.470Z,0.726
2023-05-05T14:05:31.874Z,0.63
2023-05-05T14:07:12.223Z,0.553
2023-05-05T14:08:52.604Z,0.507
2023-05-05T14:10:33.050Z,0.516
2023-05-05T14:12:13.436Z,0.551
2023-05-05T14:13:53.802Z,0.592
2023-05-05T14:15:34.293Z,0.58
2023-05-05T14:17:14.599Z,0.512
2023-05-05T14:18:55.055Z,0.436
2023-05-05T14:20:35.472Z,0.382
2023-05-05T14:22:15.883Z,0.362
2023-05-05T14:23:56.346Z,0.353
2023-05-05T14:25:36.795Z,0.343
2023-05-05T14:27:17.132Z,0.329
2023-05-05T14:28:57.613Z,0.332
2023-05-05T14:30:38.114Z,0.342
2023-05-05T14:32:18.629Z,0.352
2023-05-05T14:33:59.015Z,0.352
2023-05-05T14:35:39.474Z,0.346
2023-05-05T14:37:19.820Z,0.338
2023-05-05T14:39:00.262Z,0.314
2023-05-05T14:40:40.639Z,0.271
2023-05-05T14:42:21.078Z,0.233
2023-05-05T14:44:01.510Z,0.211
2023-05-05T14:45:42.053Z,0.212
2023-05-05T14:47:22.533Z,0.218
2023-05-05T14:49:02.882Z,0.226
2023-05-05T14:50:43.280Z,0.244
2023-05-05T14:52:23.651Z,0.256
2023-05-05T14:54:07.414Z,0.259
2023-05-05T14:55:44.274Z,0.256
2023-05-05T14:57:24.648Z,0.248
2023-05-05T14:59:04.971Z,0.229
2023-05-05T15:00:45.396Z,0.21
2023-05-05T15:02:25.812Z,0.195
2023-05-05T15:04:06.342Z,0.183
2023-05-05T15:05:46.683Z,0.174
2023-05-05T15:07:27.051Z,0.17
2023-05-05T15:09:07.484Z,0.171
2023-05-05T15:10:47.894Z,0.186
2023-05-05T15:12:28.314Z,0.206
2023-05-05T15:14:08.756Z,0.229
2023-05-05T15:15:49.193Z,0.268
2023-05-05T15:17:29.624Z,0.312
2023-05-05T15:19:09.980Z,0.361
2023-05-05T15:20:50.421Z,0.386
2023-05-05T15:22:30.858Z,0.393
2023-05-05T15:24:11.315Z,0.399
2023-05-05T15:25:51.726Z,0.424
2023-05-05T15:27:32.107Z,0.439
2023-05-05T15:29:12.501Z,0.427
2023-05-05T15:30:52.907Z,0.405
2023-05-05T15:32:33.428Z,0.425
2023-05-05T15:34:13.713Z,0.472
2023-05-05T15:35:54.079Z,0.501
2023-05-05T15:37:34.451Z,0.482
2023-05-05T15:39:14.844Z,0.443
2023-05-05T15:40:55.229Z,0.323
2023-05-05T15:42:35.652Z,0.252
2023-05-05T15:44:16.082Z,0.271
2023-05-05T15:45:56.429Z,0.268
2023-05-05T15:47:36.915Z,0.232
2023-05-05T15:49:17.217Z,0.202
2023-05-05T15:50:57.628Z,0.217
2023-05-05T15:52:37.972Z,0.277
2023-05-05T15:54:18.450Z,0.384
2023-05-05T15:55:58.788Z,0.467
2023-05-05T15:57:39.321Z,0.514
2023-05-05T15:59:19.765Z,0.532
2023-05-05T16:01:00.176Z,0.568
2023-05-05T16:02:40.705Z,0.583
2023-05-05T16:04:21.033Z,0.574
2023-05-05T16:06:01.541Z,0.607
2023-05-05T16:07:41.928Z,0.632
2023-05-05T16:09:22.337Z,0.62
2023-05-05T16:11:02.780Z,0.601
2023-05-05T16:12:43.274Z,0.554
2023-05-05T16:14:23.673Z,0.502
2023-05-05T16:16:04.079Z,0.46
2023-05-05T16:17:44.539Z,0.429
2023-05-05T16:19:24.926Z,0.386
2023-05-05T16:21:05.366Z,0.351
2023-05-05T16:22:45.918Z,0.329
2023-05-05T16:24:26.216Z,0.341
2023-05-05T16:26:06.636Z,0.376
2023-05-05T16:27:47.063Z,0.414
2023-05-05T16:29:27.373Z,0.435
2023-05-05T16:31:07.661Z,0.43
2023-05-05T16:32:48.148Z,0.418
2023-05-05T16:34:28.469Z,0.411
2023-05-05T16:36:08.856Z,0.408
2023-05-05T16:37:49.281Z,0.399
2023-05-05T16:39:29.663Z,0.383
2023-05-05T16:41:10.126Z,0.356
2023-05-05T16:42:50.530Z,0.334
2023-05-05T16:44:30.933Z,0.305
2023-05-05T16:46:11.386Z,0.335
2023-05-05T16:47:51.868Z,0.348
2023-05-05T16:49:32.181Z,0.359
2023-05-05T16:51:12.646Z,0.359
2023-05-05T16:52:53.085Z,0.342
2023-05-05T16:54:33.499Z,0.319
2023-05-05T16:56:13.874Z,0.31
2023-05-05T16:57:54.250Z,0.31
2023-05-05T16:59:34.706Z,0.308
2023-05-05T17:01:15.208Z,0.301
2023-05-05T17:02:55.633Z,0.305
2023-05-05T17:04:35.964Z,0.306
2023-05-05T17:06:16.240Z,0.295
2023-05-05T17:07:56.622Z,0.275
2023-05-05T17:09:37.056Z,0.256
2023-05-05T17:11:17.435Z,0.237
2023-05-05T17:12:57.866Z,0.237
2023-05-05T17:14:38.234Z,0.235
2023-05-05T17:16:18.751Z,0.235
2023-05-05T17:17:59.162Z,0.234
2023-05-05T17:19:42.614Z,0.234
2023-05-05T17:21:19.980Z,0.231
2023-05-05T17:23:00.411Z,0.228
2023-05-05T17:24:40.856Z,0.227
2023-05-05T17:26:21.156Z,0.232
2023-05-05T17:28:01.508Z,0.248
2023-05-05T17:29:41.849Z,0.268
2023-05-05T17:31:22.291Z,0.297
2023-05-05T17:33:02.660Z,0.319
2023-05-05T17:34:43.047Z,0.335
2023-05-05T17:36:23.461Z,0.351
2023-05-05T17:38:03.847Z,0.378
2023-05-05T17:39:44.308Z,0.401
2023-05-05T17:41:24.712Z,0.414
2023-05-05T17:43:05.229Z,0.426
2023-05-05T17:44:47.526Z,0.439
2023-05-05T17:46:26.139Z,0.449
2023-05-05T17:48:06.438Z,0.437
2023-05-05T17:49:46.805Z,0.414
2023-05-05T17:51:27.193Z,0.388
2023-05-05T17:53:07.562Z,0.387
2023-05-05T17:54:47.961Z,0.399
2023-05-05T17:56:28.398Z,0.389
2023-05-05T17:58:08.855Z,0.344
2023-05-05T17:59:49.236Z,0.316
2023-05-05T18:01:29.776Z,0.281
2023-05-05T18:03:10.345Z,0.234
2023-05-05T18:04:50.631Z,0.177
2023-05-05T18:06:31.089Z,0.127
2023-05-05T18:08:11.610Z,0.102
2023-05-05T18:09:52.018Z,0.098
2023-05-05T18:11:32.423Z,0.101
2023-05-05T18:13:12.840Z,0.09
2023-05-05T18:14:53.227Z,0.084
2023-05-05T18:16:33.661Z,0.083
2023-05-05T18:18:14.109Z,0.085
2023-05-05T18:19:54.556Z,0.087
2023-05-05T18:21:35.006Z,0.082
2023-05-05T18:23:15.546Z,0.083
2023-05-05T18:24:55.985Z,0.074
2023-05-05T18:26:36.408Z,0.065
2023-05-05T18:28:16.856Z,0.061
2023-05-05T18:29:57.291Z,0.066
2023-05-05T18:31:37.744Z,0.075
2023-05-05T18:33:18.102Z,0.082
2023-05-05T18:34:58.648Z,0.095
2023-05-05T18:36:39.017Z,0.111
2023-05-05T18:38:19.555Z,0.102
2023-05-05T18:39:59.932Z,0.085
2023-05-05T18:41:40.448Z,0.061
2023-05-05T18:43:20.943Z,0.036
2023-05-05T18:45:01.325Z,0.016
2023-05-05T18:46:41.678Z,0
2023-05-05T18:48:22.041Z,0
2023-05-05T18:50:02.534Z,0
2023-05-05T18:51:42.962Z,0
2023-05-05T18:53:23.376Z,0
2023-05-05T18:55:03.792Z,0
2023-05-05T18:56:44.203Z,0
2023-05-05T18:58:24.722Z,0
2023-05-05T19:00:05.159Z,0
2023-05-05T19:01:45.674Z,0
2023-05-05T19:03:26.067Z,0
2023-05-05T19:05:06.461Z,0
2023-05-05T19:06:46.857Z,0
2023-05-05T19:08:27.324Z,0
2023-05-05T19:10:07.651Z,0
2023-05-05T19:11:48.070Z,0
2023-05-05T19:13:28.436Z,0
2023-05-05T19:15:09.146Z,0
2023-05-05T19:16:49.390Z,0
2023-05-05T19:18:29.712Z,0
2023-05-05T19:20:10.107Z,0
2023-05-05T19:21:50.512Z,0
2023-05-05T19:23:30.960Z,0
2023-05-05T19:25:11.715Z,0
2023-05-05T19:26:51.843Z,0
2023-05-05T19:28:32.187Z,0
2023-05-05T19:30:12.615Z,0
2023-05-05T19:31:52.961Z,0
2023-05-05T19:33:33.391Z,0
2023-05-05T19:35:13.807Z,0
2023-05-05T19:36:54.200Z,0
2023-05-05T19:38:34.536Z,0
2023-05-05T19:40:14.915Z,0
2023-05-05T19:41:55.256Z,0
2023-05-05T19:43:35.595Z,0
2023-05-05T19:45:16.017Z,0
2023-05-05T19:46:56.418Z,0
2023-05-05T19:48:36.859Z,0
2023-05-05T19:50:17.256Z,0
2023-05-05T19:51:57.708Z,0
2023-05-05T19:53:38.106Z,0
2023-05-05T19:55:18.593Z,0
2023-05-05T19:56:58.997Z,0
2023-05-05T19:58:39.431Z,0
2023-05-05T20:00:19.882Z,0
2023-05-05T20:02:00.426Z,0
2023-05-05T20:03:40.740Z,0
2023-05-05T20:05:20.944Z,0
2023-05-05T20:07:01.335Z,0
2023-05-05T20:08:41.743Z,0
2023-05-05T20:10:22.185Z,0
2023-05-05T20:12:02.546Z,0
2023-05-05T20:13:42.859Z,0
2023-05-05T20:15:23.175Z,0
2023-05-05T20:17:03.535Z,0
2023-05-05T20:18:43.938Z,0
2023-05-05T20:20:24.357Z,0
2023-05-05T20:22:04.782Z,0
2023-05-05T20:23:45.262Z,0
2023-05-05T20:25:25.695Z,0
2023-05-05T20:27:06.092Z,0
2023-05-05T20:28:46.532Z,0
2023-05-05T20:30:26.957Z,0
2023-05-05T20:32:07.353Z,0
2023-05-05T20:33:47.700Z,0
2023-05-05T20:35:28.029Z,0
2023-05-05T20:37:08.633Z,0
2023-05-05T20:38:48.957Z,0
2023-05-05T20:40:29.436Z,0
2023-05-05T20:42:09.815Z,0
2023-05-05T20:43:50.224Z,0
2023-05-05T20:45:30.667Z,0
2023-05-05T20:47:11.189Z,0
2023-05-05T20:48:51.506Z,0
2023-05-05T20:50:31.799Z,0
2023-05-05T20:52:12.224Z,0
2023-05-05T20:53:52.485Z,0
2023-05-05T20:55:32.817Z,0
2023-05-05T20:57:13.144Z,0
2023-05-05T20:58:53.521Z,0
2023-05-05T21:00:34.032Z,0
2023-05-05T21:02:14.304Z,0
2023-05-05T21:03:54.589Z,0
2023-05-05T21:05:35.036Z,0
2023-05-05T21:07:15.441Z,0
2023-05-05T21:08:55.856Z,0
2023-05-05T21:10:36.315Z,0
2023-05-05T21:12:16.597Z,0
2023-05-05T21:13:57.026Z,0
2023-05-05T21:15:37.476Z,0
2023-05-05T21:17:17.973Z,0
2023-05-05T21:18:58.379Z,0
2023-05-05T21:20:38.766Z,0
2023-05-05T21:22:19.140Z,0
2023-05-05T21:23:59.546Z,0
2023-05-05T21:25:40.045Z,0
2023-05-05T21:27:20.441Z,0
2023-05-05T21:29:00.858Z,0
2023-05-05T21:30:41.182Z,0
2023-05-05T21:32:21.574Z,0
2023-05-05T21:34:01.791Z,0
2023-05-05T21:35:42.102Z,0
2023-05-05T21:37:22.410Z,0
2023-05-05T21:39:02.716Z,0
2023-05-05T21:40:43.014Z,0
2023-05-05T21:42:23.379Z,0
2023-05-05T21:44:03.724Z,0
2023-05-05T21:45:44.096Z,0
2023-05-05T21:47:24.596Z,0
2023-05-05T21:49:04.995Z,0
2023-05-05T21:50:45.360Z,0
2023-05-05T21:52:25.805Z,0
2023-05-05T21:54:06.205Z,0
2023-05-05T21:55:46.629Z,0
2023-05-05T21:57:26.974Z,0
2023-05-05T21:59:07.457Z,0
2023-05-05T22:00:47.811Z,0
2023-05-05T22:02:28.305Z,0
2023-05-05T22:04:08.549Z,0
2023-05-05T22:05:49.010Z,0
2023-05-05T22:07:31.068Z,0
2023-05-05T22:09:09.831Z,0
2023-05-05T22:10:50.228Z,0
2023-05-05T22:12:30.633Z,0
2023-05-05T22:14:11.033Z,0
2023-05-05T22:15:51.515Z,0
2023-05-05T22:17:31.975Z,0
2023-05-05T22:19:12.301Z,0
2023-05-05T22:20:52.790Z,0
2023-05-05T22:22:33.210Z,0
2023-05-05T22:24:13.639Z,0
2023-05-05T22:25:54.066Z,0
2023-05-05T22:27:34.455Z,0
2023-05-05T22:29:14.780Z,0
2023-05-05T22:30:55.177Z,0
2023-05-05T22:32:35.618Z,0
2023-05-05T22:34:16.010Z,0
2023-05-05T22:35:56.518Z,0
2023-05-05T22:37:36.871Z,0